sensor_id;sensor_type;location;lat;lon;timestamp;P1;durP1;ratioP1;P2;durP2;ratioP2
51228;SDS011;37304;52.216;6.874;2023-07-29T00:03:06;8.27;;;5.00;;
51228;SDS011;37304;52.216;6.874;2023-07-29T00:08:07;7.97;;;4.90;;
51228;SDS011;37304;52.216;6.874;2023-07-29T00:13:07;9.48;;;5.00;;
51228;SDS011;37304;52.216;6.874;2023-07-29T00:18:08;6.17;;;4.17;;
51228;SDS011;37304;52.216;6.874;2023-07-29T00:23:08;8.10;;;4.13;;
51228;SDS011;37304;52.216;6.874;2023-07-29T00:28:08;6.43;;;4.43;;
51228;SDS011;37304;52.216;6.874;2023-07-29T00:33:09;8.83;;;4.57;;
51228;SDS011;37304;52.216;6.874;2023-07-29T00:38:09;6.80;;;4.33;;
51228;SDS011;37304;52.216;6.874;2023-07-29T00:43:10;5.47;;;3.77;;
51228;SDS011;37304;52.216;6.874;2023-07-29T00:48:10;6.10;;;3.97;;
51228;SDS011;37304;52.216;6.874;2023-07-29T00:53:11;6.38;;;3.55;;
51228;SDS011;37304;52.216;6.874;2023-07-29T00:58:12;6.78;;;3.53;;
51228;SDS011;37304;52.216;6.874;2023-07-29T01:03:12;7.20;;;3.00;;
51228;SDS011;37304;52.216;6.874;2023-07-29T01:08:26;6.22;;;3.40;;
51228;SDS011;37304;52.216;6.874;2023-07-29T01:13:44;5.03;;;3.75;;
51228;SDS011;37304;52.216;6.874;2023-07-29T01:18:52;4.45;;;3.28;;
51228;SDS011;37304;52.216;6.874;2023-07-29T01:23:58;6.85;;;3.42;;
51228;SDS011;37304;52.216;6.874;2023-07-29T01:29:01;5.28;;;3.90;;
51228;SDS011;37304;52.216;6.874;2023-07-29T01:34:06;6.87;;;3.90;;
51228;SDS011;37304;52.216;6.874;2023-07-29T01:39:12;5.80;;;3.33;;
51228;SDS011;37304;52.216;6.874;2023-07-29T01:44:14;5.53;;;3.47;;
51228;SDS011;37304;52.216;6.874;2023-07-29T01:49:16;6.25;;;3.50;;
51228;SDS011;37304;52.216;6.874;2023-07-29T01:54:16;4.93;;;3.30;;
51228;SDS011;37304;52.216;6.874;2023-07-29T01:59:17;4.70;;;3.33;;
51228;SDS011;37304;52.216;6.874;2023-07-29T02:04:17;8.20;;;4.13;;
51228;SDS011;37304;52.216;6.874;2023-07-29T02:09:18;6.63;;;3.90;;
51228;SDS011;37304;52.216;6.874;2023-07-29T02:14:18;6.60;;;3.83;;
51228;SDS011;37304;52.216;6.874;2023-07-29T02:19:18;5.70;;;3.73;;
51228;SDS011;37304;52.216;6.874;2023-07-29T02:24:19;6.53;;;3.77;;
51228;SDS011;37304;52.216;6.874;2023-07-29T02:29:19;5.57;;;3.50;;
51228;SDS011;37304;52.216;6.874;2023-07-29T02:34:20;8.63;;;4.10;;
51228;SDS011;37304;52.216;6.874;2023-07-29T02:39:20;12.73;;;4.60;;
51228;SDS011;37304;52.216;6.874;2023-07-29T02:44:21;6.18;;;3.95;;
51228;SDS011;37304;52.216;6.874;2023-07-29T02:49:22;6.57;;;4.05;;
51228;SDS011;37304;52.216;6.874;2023-07-29T02:54:23;7.22;;;4.38;;
51228;SDS011;37304;52.216;6.874;2023-07-29T02:59:24;6.20;;;4.30;;
51228;SDS011;37304;52.216;6.874;2023-07-29T03:04:24;6.47;;;4.05;;
51228;SDS011;37304;52.216;6.874;2023-07-29T03:09:25;6.30;;;4.33;;
51228;SDS011;37304;52.216;6.874;2023-07-29T03:14:25;6.70;;;4.47;;
51228;SDS011;37304;52.216;6.874;2023-07-29T03:19:26;8.73;;;5.00;;
51228;SDS011;37304;52.216;6.874;2023-07-29T03:24:26;8.20;;;4.60;;
51228;SDS011;37304;52.216;6.874;2023-07-29T03:29:27;9.02;;;4.57;;
51228;SDS011;37304;52.216;6.874;2023-07-29T03:34:27;6.33;;;4.30;;
51228;SDS011;37304;52.216;6.874;2023-07-29T03:39:27;9.83;;;4.70;;
51228;SDS011;37304;52.216;6.874;2023-07-29T03:44:28;5.33;;;4.13;;
51228;SDS011;37304;52.216;6.874;2023-07-29T03:49:28;6.63;;;4.47;;
51228;SDS011;37304;52.216;6.874;2023-07-29T03:54:29;10.60;;;4.83;;
51228;SDS011;37304;52.216;6.874;2023-07-29T03:59:29;8.10;;;5.17;;
51228;SDS011;37304;52.216;6.874;2023-07-29T04:04:29;9.00;;;4.80;;
51228;SDS011;37304;52.216;6.874;2023-07-29T04:09:30;7.50;;;5.00;;
51228;SDS011;37304;52.216;6.874;2023-07-29T04:14:30;7.97;;;4.90;;
51228;SDS011;37304;52.216;6.874;2023-07-29T04:19:30;7.83;;;5.17;;
51228;SDS011;37304;52.216;6.874;2023-07-29T04:24:31;8.77;;;4.70;;
51228;SDS011;37304;52.216;6.874;2023-07-29T04:29:31;10.60;;;4.53;;
51228;SDS011;37304;52.216;6.874;2023-07-29T04:34:32;7.83;;;5.00;;
51228;SDS011;37304;52.216;6.874;2023-07-29T04:39:32;12.70;;;5.83;;
51228;SDS011;37304;52.216;6.874;2023-07-29T04:44:33;8.43;;;4.80;;
51228;SDS011;37304;52.216;6.874;2023-07-29T04:49:33;8.73;;;4.70;;
51228;SDS011;37304;52.216;6.874;2023-07-29T04:54:34;7.57;;;4.97;;
51228;SDS011;37304;52.216;6.874;2023-07-29T04:59:34;7.57;;;4.87;;
51228;SDS011;37304;52.216;6.874;2023-07-29T05:04:34;6.57;;;4.67;;
51228;SDS011;37304;52.216;6.874;2023-07-29T05:09:35;9.13;;;5.10;;
51228;SDS011;37304;52.216;6.874;2023-07-29T05:14:35;8.80;;;5.23;;
51228;SDS011;37304;52.216;6.874;2023-07-29T05:19:35;6.87;;;4.70;;
51228;SDS011;37304;52.216;6.874;2023-07-29T05:24:36;8.93;;;5.30;;
51228;SDS011;37304;52.216;6.874;2023-07-29T05:29:36;8.40;;;5.20;;
51228;SDS011;37304;52.216;6.874;2023-07-29T05:34:36;9.53;;;6.03;;
51228;SDS011;37304;52.216;6.874;2023-07-29T05:39:37;12.85;;;5.35;;
51228;SDS011;37304;52.216;6.874;2023-07-29T05:44:37;7.77;;;5.47;;
51228;SDS011;37304;52.216;6.874;2023-07-29T05:49:38;7.83;;;5.23;;
51228;SDS011;37304;52.216;6.874;2023-07-29T05:54:38;9.73;;;4.97;;
51228;SDS011;37304;52.216;6.874;2023-07-29T05:59:38;8.20;;;5.23;;
51228;SDS011;37304;52.216;6.874;2023-07-29T06:04:39;11.20;;;4.97;;
51228;SDS011;37304;52.216;6.874;2023-07-29T06:09:39;8.67;;;4.40;;
51228;SDS011;37304;52.216;6.874;2023-07-29T06:14:40;6.50;;;3.83;;
51228;SDS011;37304;52.216;6.874;2023-07-29T06:19:40;6.23;;;3.73;;
